Time;durP1;ratioP1;P1;durP2;ratioP2;P2;SDS_P1;SDS_P2;PMS_P1;PMS_P2;Temp;Humidity;BMP_temperature;BMP_pressure;BME280_temperature;BME280_humidity;BME280_pressure;Samples;Min_cycle;Max_cycle;Signal;HPM_P1;HPM_P2
2024/03/20 00:02:07;;;;;;;11.18;5.57;;;;;;;11.93;100.00;101769.25;5063613;28;20404;-71
2024/03/20 00:04:55;;;;;;;13.55;6.28;;;;;;;11.97;100.00;101768.72;5065484;28;20110;-70
2024/03/20 00:07:42;;;;;;;13.18;6.18;;;;;;;11.94;100.00;101770.06;5069127;28;20100;-71
2024/03/20 00:10:29;;;;;;;13.65;6.43;;;;;;;11.87;100.00;101761.22;5053763;28;20078;-71
2024/03/20 00:13:16;;;;;;;11.32;6.45;;;;;;;11.82;100.00;101770.16;5071235;28;20051;-70
2024/03/20 00:16:03;;;;;;;10.75;5.53;;;;;;;11.77;100.00;101772.81;5092256;28;20071;-70
2024/03/20 00:18:50;;;;;;;12.18;5.60;;;;;;;11.79;100.00;101778.03;5065697;28;20067;-70
2024/03/20 00:21:37;;;;;;;15.23;6.22;;;;;;;11.81;100.00;101773.97;5085252;28;20518;-70
2024/03/20 00:24:24;;;;;;;12.60;6.40;;;;;;;11.83;100.00;101766.31;5070806;28;20188;-69
2024/03/20 00:27:11;;;;;;;12.77;6.30;;;;;;;11.84;100.00;101767.19;5100503;28;20052;-69
2024/03/20 00:29:59;;;;;;;11.38;5.72;;;;;;;11.85;100.00;101766.91;5100307;28;20188;-70
2024/03/20 00:32:46;;;;;;;12.95;6.20;;;;;;;11.84;100.00;101767.19;5085438;28;20051;-69
2024/03/20 00:35:33;;;;;;;13.40;6.65;;;;;;;11.79;100.00;101769.84;5083626;28;20146;-70
2024/03/20 00:38:20;;;;;;;13.75;6.47;;;;;;;11.75;100.00;101763.22;5086232;28;20039;-70
2024/03/20 00:41:08;;;;;;;14.73;6.20;;;;;;;11.71;100.00;101761.00;5081237;28;20086;-70
2024/03/20 00:43:55;;;;;;;14.70;6.90;;;;;;;11.69;100.00;101762.34;5099176;28;20051;-69
2024/03/20 00:46:43;;;;;;;13.25;6.70;;;;;;;11.68;100.00;101756.03;5078010;28;20039;-70
2024/03/20 00:49:30;;;;;;;16.80;6.68;;;;;;;11.68;100.00;101755.22;5058926;28;20105;-70
2024/03/20 00:52:17;;;;;;;13.65;6.28;;;;;;;11.66;100.00;101754.63;5097950;28;20127;-69
2024/03/20 00:55:04;;;;;;;11.57;5.88;;;;;;;11.66;100.00;101760.09;5085523;28;20079;-70
2024/03/20 00:57:51;;;;;;;10.32;5.70;;;;;;;11.68;100.00;101757.94;5066167;28;20055;-70
2024/03/20 01:00:39;;;;;;;14.30;6.55;;;;;;;11.71;100.00;101760.16;5066699;28;20089;-70
2024/03/20 01:03:26;;;;;;;15.07;5.82;;;;;;;11.70;100.00;101753.06;5078286;28;20460;-70
2024/03/20 01:06:13;;;;;;;12.35;6.05;;;;;;;11.69;100.00;101759.59;5112149;27;20078;-70
2024/03/20 01:09:00;;;;;;;10.52;5.50;;;;;;;11.69;100.00;101759.59;5098336;28;20073;-69
2024/03/20 01:11:48;;;;;;;12.20;6.22;;;;;;;11.66;100.00;101757.38;5084836;28;20126;-69
2024/03/20 01:14:35;;;;;;;14.30;5.97;;;;;;;11.64;100.00;101759.50;5064433;28;20448;-71
2024/03/20 01:17:22;;;;;;;11.63;5.72;;;;;;;11.63;100.00;101757.88;5083523;28;20075;-70
2024/03/20 01:20:11;;;;;;;11.82;6.32;;;;;;;11.61;100.00;101760.03;5111534;27;20070;-69
2024/03/20 01:22:58;;;;;;;14.10;6.35;;;;;;;11.59;100.00;101759.44;5118446;27;20070;-70
2024/03/20 01:25:46;;;;;;;11.23;5.63;;;;;;;11.58;100.00;101761.34;5099883;28;20574;-70
2024/03/20 01:28:33;;;;;;;12.88;6.30;;;;;;;11.59;100.00;101748.53;5085228;28;20066;-69
2024/03/20 01:31:19;;;;;;;11.50;5.80;;;;;;;11.58;100.00;101758.63;5097547;28;20092;-70
2024/03/20 01:34:06;;;;;;;13.13;5.70;;;;;;;11.59;100.00;101754.00;5098657;28;20496;-70
2024/03/20 01:36:53;;;;;;;11.00;5.60;;;;;;;11.58;100.00;101757.81;5096500;28;20071;-70
2024/03/20 01:39:41;;;;;;;14.27;5.80;;;;;;;11.54;100.00;101751.19;5085325;28;20096;-70
2024/03/20 01:42:28;;;;;;;14.77;5.85;;;;;;;11.53;100.00;101753.09;5083263;28;20452;-71
2024/03/20 01:45:17;;;;;;;12.45;5.90;;;;;;;11.54;100.00;101749.28;5083613;28;20131;-71
2024/03/20 01:48:04;;;;;;;12.65;5.68;;;;;;;11.56;100.00;101751.78;5094935;28;20047;-70
2024/03/20 01:50:53;;;;;;;17.42;5.90;;;;;;;11.55;100.00;101750.13;5077928;28;20488;-70
2024/03/20 01:53:40;;;;;;;12.02;5.78;;;;;;;11.45;100.00;101748.91;5097880;27;20172;-70
2024/03/20 01:56:27;;;;;;;15.48;6.10;;;;;;;11.40;100.00;101746.09;5112406;27;20093;-70
2024/03/20 01:59:14;;;;;;;13.00;5.63;;;;;;;11.39;100.00;101741.72;5097918;28;20500;-70
2024/03/20 02:02:02;;;;;;;12.18;5.47;;;;;;;11.38;100.00;101744.72;5097878;28;20440;-69
2024/03/20 02:04:48;;;;;;;13.45;5.85;;;;;;;11.39;100.00;101746.34;5078665;28;20078;-70
2024/03/20 02:07:35;;;;;;;12.45;5.72;;;;;;;11.39;100.00;101738.16;5102447;28;20493;-70
2024/03/20 02:10:24;;;;;;;11.00;5.75;;;;;;;11.38;100.00;101737.34;5110820;28;20134;-70
2024/03/20 02:13:10;;;;;;;11.05;5.70;;;;;;;11.32;100.00;101734.78;5075620;28;20131;-69
2024/03/20 02:15:57;;;;;;;12.50;5.97;;;;;;;11.27;100.00;101738.25;5110928;28;20421;-70
2024/03/20 02:18:46;;;;;;;12.98;5.65;;;;;;;11.23;100.00;101737.09;5092630;28;20078;-70
2024/03/20 02:21:33;;;;;;;12.32;5.50;;;;;;;11.22;100.00;101724.56;5091831;28;20545;-69
2024/03/20 02:24:20;;;;;;;12.32;5.57;;;;;;;11.23;100.00;101728.91;5093942;28;20146;-69
2024/03/20 02:27:07;;;;;;;10.60;5.40;;;;;;;11.24;100.00;101738.78;5097883;28;20516;-69
2024/03/20 02:29:54;;;;;;;11.00;5.22;;;;;;;11.25;100.00;101730.31;5076828;28;20087;-70
2024/03/20 02:32:41;;;;;;;12.02;5.57;;;;;;;11.26;100.00;101736.63;5076404;28;20105;-70
2024/03/20 02:35:28;;;;;;;12.23;5.65;;;;;;;11.26;100.00;101731.16;5090624;28;20047;-70
2024/03/20 02:38:15;;;;;;;14.90;5.50;;;;;;;11.26;100.00;101728.44;5089814;28;20459;-70
2024/03/20 02:41:03;;;;;;;11.40;5.40;;;;;;;11.26;100.00;101720.25;5076821;28;20082;-69
2024/03/20 02:43:52;;;;;;;12.77;5.60;;;;;;;11.21;100.00;101725.63;5094916;28;20514;-70
2024/03/20 02:46:39;;;;;;;11.45;5.40;;;;;;;11.09;100.00;101732.00;5089963;28;20044;-70
2024/03/20 02:49:26;;;;;;;11.20;5.35;;;;;;;11.07;100.00;101727.88;5090310;28;20052;-70
2024/03/20 02:52:14;;;;;;;12.27;5.72;;;;;;;11.08;100.00;101730.34;5064286;28;20097;-70
2024/03/20 02:55:01;;;;;;;11.65;5.55;;;;;;;11.09;100.00;101729.28;5094769;28;20035;-71
2024/03/20 02:57:48;;;;;;;12.70;5.13;;;;;;;11.13;100.00;101735.03;5095475;28;20087;-70
2024/03/20 03:00:35;;;;;;;11.13;5.75;;;;;;;11.13;100.00;101732.31;5111589;28;20169;-71
2024/03/20 03:03:22;;;;;;;11.70;6.22;;;;;;;11.11;100.00;101729.00;5069217;28;20082;-70
2024/03/20 03:06:09;;;;;;;11.13;5.70;;;;;;;11.12;100.00;101730.69;5092938;28;20036;-70
2024/03/20 03:08:57;;;;;;;11.85;5.03;;;;;;;11.13;100.00;101726.84;5083183;28;20051;-70
2024/03/20 03:11:45;;;;;;;12.23;5.50;;;;;;;11.08;100.00;101733.06;5083398;28;20124;-70
2024/03/20 03:14:32;;;;;;;10.98;5.40;;;;;;;11.07;100.00;101728.69;5096520;28;20523;-70
2024/03/20 03:17:19;;;;;;;10.48;5.88;;;;;;;10.99;100.00;101731.00;5082895;28;20085;-70
2024/03/20 03:20:13;;;;;;;11.82;5.18;;;;;;;10.92;100.00;101725.75;5077144;28;20073;-69
2024/03/20 03:23:00;;;;;;;12.90;5.63;;;;;;;10.83;100.00;101729.94;5077691;28;20062;-70
2024/03/20 03:25:47;;;;;;;12.00;5.63;;;;;;;10.80;100.00;101733.13;5094682;28;20044;-70
2024/03/20 03:28:34;;;;;;;13.82;5.90;;;;;;;10.78;100.00;101727.97;5084565;28;20048;-70
2024/03/20 03:31:21;;;;;;;12.57;5.70;;;;;;;10.74;100.00;101732.25;5082066;28;20067;-70
2024/03/20 03:34:08;;;;;;;13.38;5.68;;;;;;;10.74;100.00;101745.06;5085025;28;20062;-69
2024/03/20 03:36:55;;;;;;;10.23;5.60;;;;;;;10.76;100.00;101740.19;5080568;28;20042;-70
2024/03/20 03:39:42;;;;;;;16.20;5.68;;;;;;;10.77;100.00;101734.47;5083515;28;20078;-70
2024/03/20 03:42:29;;;;;;;9.65;5.47;;;;;;;10.82;100.00;101731.84;5096668;28;20104;-70
2024/03/20 03:45:17;;;;;;;10.00;5.75;;;;;;;10.82;100.00;101728.28;5094580;28;20104;-70
2024/03/20 03:48:04;;;;;;;10.75;5.57;;;;;;;10.85;100.00;101731.34;5094448;28;20043;-70
2024/03/20 03:50:52;;;;;;;12.60;5.60;;;;;;;10.86;100.00;101733.00;5111138;28;20047;-69
2024/03/20 03:53:39;;;;;;;11.95;5.47;;;;;;;10.82;100.00;101731.00;5110079;28;20048;-69
2024/03/20 03:56:26;;;;;;;11.23;5.32;;;;;;;10.83;100.00;101738.13;5083720;28;20079;-69
2024/03/20 03:59:13;;;;;;;10.43;5.30;;;;;;;10.83;100.00;101738.13;5048878;28;20064;-69
2024/03/20 04:02:00;;;;;;;15.50;6.05;;;;;;;10.83;100.00;101743.56;5049003;28;20080;-69
2024/03/20 04:04:48;;;;;;;13.80;5.85;;;;;;;10.84;100.00;101737.03;5063262;28;20492;-70
2024/03/20 04:07:35;;;;;;;12.52;6.18;;;;;;;10.84;100.00;101745.22;5069619;28;20085;-70
2024/03/20 04:10:22;;;;;;;13.80;6.40;;;;;;;10.85;100.00;101738.72;5076974;28;20048;-70
2024/03/20 04:13:09;;;;;;;16.23;6.38;;;;;;;10.83;100.00;101736.22;5037120;28;20397;-70
2024/03/20 04:15:56;;;;;;;11.65;5.70;;;;;;;10.77;100.00;101739.09;5059650;28;20036;-69
2024/03/20 04:18:44;;;;;;;10.85;5.90;;;;;;;10.71;100.00;101729.19;5090852;28;20079;-70
2024/03/20 04:21:31;;;;;;;13.05;5.68;;;;;;;10.60;100.00;101734.44;5073605;28;20086;-70
2024/03/20 04:24:18;;;;;;;9.73;5.38;;;;;;;10.53;100.00;101739.22;5081537;28;20093;-70
2024/03/20 04:27:06;;;;;;;11.90;5.25;;;;;;;10.49;100.00;101743.53;5089527;28;20052;-69
2024/03/20 04:29:53;;;;;;;14.15;6.07;;;;;;;10.49;100.00;101743.53;5061548;28;20072;-70
2024/03/20 04:32:40;;;;;;;9.35;5.38;;;;;;;10.55;100.00;101749.88;5061584;28;20044;-70
2024/03/20 04:35:27;;;;;;;11.25;5.93;;;;;;;10.56;100.00;101743.34;5098705;28;20127;-70
2024/03/20 04:38:14;;;;;;;11.93;5.97;;;;;;;10.52;100.00;101737.59;5109866;28;20181;-70
2024/03/20 04:41:01;;;;;;;15.00;5.68;;;;;;;10.47;100.00;101740.22;5082365;28;20522;-69
2024/03/20 04:43:49;;;;;;;11.18;5.93;;;;;;;10.44;100.00;101735.28;5096291;28;20051;-70
2024/03/20 04:46:36;;;;;;;10.95;5.70;;;;;;;10.42;100.00;101745.59;5083593;28;20177;-70
2024/03/20 04:49:23;;;;;;;10.27;5.80;;;;;;;10.42;100.00;101740.13;5089801;28;20076;-70
2024/03/20 04:52:10;;;;;;;11.68;5.32;;;;;;;10.42;100.00;101737.41;5096280;28;20109;-70
2024/03/20 04:54:58;;;;;;;12.05;5.53;;;;;;;10.39;100.00;101737.88;5095447;28;20071;-70
2024/03/20 04:57:45;;;;;;;12.20;5.45;;;;;;;10.35;100.00;101742.19;5093325;28;20078;-70
2024/03/20 05:00:32;;;;;;;10.52;5.63;;;;;;;10.33;100.00;101749.75;5078158;28;20121;-71
2024/03/20 05:03:19;;;;;;;11.55;5.80;;;;;;;10.35;100.00;101737.56;5084320;28;20460;-71
2024/03/20 05:06:06;;;;;;;11.38;5.40;;;;;;;10.37;100.00;101745.50;5058915;28;20109;-70
2024/03/20 05:08:53;;;;;;;10.77;5.38;;;;;;;10.35;100.00;101737.56;5112233;28;20147;-70
2024/03/20 05:11:40;;;;;;;10.20;5.35;;;;;;;10.35;100.00;101736.72;5101143;28;20048;-70
2024/03/20 05:14:27;;;;;;;13.50;5.90;;;;;;;10.37;100.00;101745.50;5058554;28;20066;-70
2024/03/20 05:17:14;;;;;;;10.80;5.80;;;;;;;10.35;100.00;101743.00;5087879;28;20073;-70
2024/03/20 05:20:04;;;;;;;11.30;5.68;;;;;;;10.37;100.00;101740.03;5098434;28;20051;-70
2024/03/20 05:22:51;;;;;;;12.98;6.03;;;;;;;10.39;100.00;101743.31;5097406;28;20070;-70
2024/03/20 05:25:39;;;;;;;11.25;6.35;;;;;;;10.42;100.00;101742.84;5110525;28;20047;-70
2024/03/20 05:28:27;;;;;;;12.30;6.55;;;;;;;10.44;100.00;101740.72;5109733;28;20047;-70
2024/03/20 05:31:28;;;;;;;12.45;6.53;;;;;;;10.45;100.00;101736.91;5050591;28;20051;-70
2024/03/20 05:34:15;;;;;;;14.93;5.95;;;;;;;10.45;100.00;101743.19;5065411;28;20546;-70
2024/03/20 05:37:02;;;;;;;11.07;6.03;;;;;;;10.40;100.00;101737.63;5101638;28;20047;-70
2024/03/20 05:39:49;;;;;;;11.25;6.00;;;;;;;10.40;100.00;101739.53;5071215;28;20058;-69
2024/03/20 05:42:37;;;;;;;12.75;6.07;;;;;;;10.39;100.00;101741.44;5099330;28;20411;-69
2024/03/20 05:45:24;;;;;;;12.18;6.05;;;;;;;10.40;100.00;101739.53;5075296;28;20100;-70
2024/03/20 05:48:11;;;;;;;12.15;6.22;;;;;;;10.38;100.00;101741.69;5088746;28;20151;-70
2024/03/20 05:50:58;;;;;;;12.00;6.40;;;;;;;10.35;100.00;101744.91;5051716;28;20055;-70
2024/03/20 05:53:45;;;;;;;14.88;6.22;;;;;;;10.32;100.00;101734.47;5078868;28;20047;-70
2024/03/20 05:56:32;;;;;;;11.38;6.32;;;;;;;10.33;100.00;101741.59;5089976;28;20035;-69
2024/03/20 05:59:19;;;;;;;12.85;6.20;;;;;;;10.33;100.00;101747.03;5071724;28;20055;-70
2024/03/20 06:02:07;;;;;;;12.65;6.53;;;;;;;10.29;100.00;101754.03;5081343;28;20039;-68
2024/03/20 06:04:55;;;;;;;12.60;6.13;;;;;;;10.30;100.00;101751.06;5057377;28;20044;-69
2024/03/20 06:07:43;;;;;;;14.07;6.43;;;;;;;10.28;100.00;101746.91;5085747;28;20079;-69
2024/03/20 06:10:30;;;;;;;14.38;7.22;;;;;;;10.26;100.00;101759.94;5086366;28;20050;-69
2024/03/20 06:13:17;;;;;;;17.23;7.20;;;;;;;10.22;100.00;101757.72;5073036;28;20047;-69
2024/03/20 06:16:04;;;;;;;13.70;7.20;;;;;;;10.18;100.00;101755.72;5078789;28;20102;-65
2024/03/20 06:18:51;;;;;;;14.45;7.35;;;;;;;10.13;100.00;101756.44;5051474;28;20111;-69
2024/03/20 06:21:41;;;;;;;11.35;6.32;;;;;;;10.16;100.00;101763.28;5076882;28;20089;-70
2024/03/20 06:24:28;;;;;;;14.15;6.50;;;;;;;10.21;100.00;101766.13;5086709;28;20066;-69
2024/03/20 06:27:15;;;;;;;12.98;6.78;;;;;;;10.22;100.00;101760.44;5078593;28;20040;-69
2024/03/20 06:30:15;;;;;;;17.40;7.72;;;;;;;10.21;100.00;101763.38;5094861;27;20074;-69
2024/03/20 06:33:02;;;;;;;13.90;7.28;;;;;;;10.17;100.00;101759.50;5092033;28;20075;-69
2024/03/20 06:35:50;;;;;;;17.55;8.43;;;;;;;10.15;100.00;101759.75;5088615;28;20039;-70
2024/03/20 06:38:37;;;;;;;15.60;7.97;;;;;;;10.16;100.00;101769.56;5072334;28;20111;-70
2024/03/20 06:41:24;;;;;;;16.08;7.35;;;;;;;10.17;100.00;101768.50;5084268;28;20466;-70
2024/03/20 06:44:14;;;;;;;16.60;8.05;;;;;;;10.16;100.00;101760.56;5099260;28;20051;-70
2024/03/20 06:47:01;;;;;;;13.13;7.65;;;;;;;10.12;100.00;101776.56;5070707;28;20051;-70
2024/03/20 06:49:48;;;;;;;12.15;7.60;;;;;;;10.08;100.00;101780.00;5087058;28;20407;-70
2024/03/20 06:52:38;;;;;;;13.55;7.80;;;;;;;10.07;100.00;101776.44;5047422;28;20071;-71
2024/03/20 06:55:26;;;;;;;14.45;8.07;;;;;;;10.11;100.00;101783.09;5091883;28;20040;-70
2024/03/20 06:58:13;;;;;;;17.38;8.32;;;;;;;10.18;100.00;101786.50;5084464;28;20047;-70
2024/03/20 07:01:02;;;;;;;16.50;8.85;;;;;;;10.20;100.00;101789.81;4729521;28;9999717;-70
2024/03/20 07:03:49;;;;;;;16.73;8.88;;;;;;;10.20;100.00;101791.72;5093522;28;20078;-70
2024/03/20 07:06:37;;;;;;;18.30;9.50;;;;;;;10.22;100.00;101786.81;5063951;28;20459;-72
2024/03/20 07:09:25;;;;;;;16.10;9.40;;;;;;;10.22;100.00;101797.72;5066513;28;20045;-72
2024/03/20 07:12:13;;;;;;;16.13;8.95;;;;;;;10.21;100.00;101796.91;5070824;28;20051;-72
2024/03/20 07:15:01;;;;;;;17.35;9.23;;;;;;;10.18;100.00;101794.66;5077089;28;20040;-73
2024/03/20 07:17:48;;;;;;;17.42;9.68;;;;;;;10.18;100.00;101791.94;5034688;28;20453;-67
2024/03/20 07:20:35;;;;;;;16.42;9.75;;;;;;;10.11;100.00;101790.44;5090706;28;20043;-70
2024/03/20 07:23:22;;;;;;;19.75;10.27;;;;;;;10.10;100.00;101799.66;5092784;28;20056;-73
2024/03/20 07:26:09;;;;;;;17.60;10.02;;;;;;;10.13;100.00;101789.13;5095394;28;20043;-72
2024/03/20 07:28:56;;;;;;;21.35;11.38;;;;;;;10.17;100.00;101790.28;5091533;28;20100;-72
2024/03/20 07:31:43;;;;;;;19.92;9.85;;;;;;;10.21;100.00;101791.44;5090610;28;20075;-72
2024/03/20 07:34:30;;;;;;;16.42;9.77;;;;;;;10.29;100.00;101787.53;5070056;28;20548;-74
2024/03/20 07:37:17;;;;;;;18.90;10.60;;;;;;;10.37;100.00;101784.44;5090851;28;20051;-72
2024/03/20 07:40:05;;;;;;;18.45;9.45;;;;;;;10.47;100.00;101783.81;5091649;28;20040;-71
2024/03/20 07:42:52;;;;;;;21.95;10.93;;;;;;;10.56;100.00;101787.81;5090047;28;20492;-71
2024/03/20 07:45:39;;;;;;;18.77;10.05;;;;;;;10.63;100.00;101793.09;5064066;28;20040;-71
2024/03/20 07:48:28;;;;;;;26.33;10.20;;;;;;;10.70;100.00;101787.50;5104748;28;20097;-72
2024/03/20 07:51:15;;;;;;;20.00;10.40;;;;;;;10.77;100.00;101793.63;5097340;28;20048;-72
2024/03/20 07:54:03;;;;;;;25.85;13.07;;;;;;;10.80;100.00;101799.41;5094223;28;20043;-72
2024/03/20 07:56:54;;;;;;;36.65;13.60;;;;;;;10.82;100.00;101794.56;5084374;28;20043;-72
2024/03/20 07:59:41;;;;;;;26.98;13.10;;;;;;;10.84;100.00;101799.75;5068960;28;20056;-71
2024/03/20 08:02:28;;;;;;;24.15;14.43;;;;;;;10.84;100.00;101792.38;5083441;28;20128;-72
2024/03/20 08:05:15;;;;;;;29.67;14.20;;;;;;;10.88;100.00;101806.38;5077896;28;20456;-72
2024/03/20 08:08:04;;;;;;;25.08;13.38;;;;;;;10.89;100.00;101805.28;5080303;28;20052;-73
2024/03/20 08:10:51;;;;;;;22.48;13.10;;;;;;;10.93;100.00;101809.19;5055115;28;20350;-72
2024/03/20 08:13:38;;;;;;;26.95;12.52;;;;;;;10.97;100.00;101812.25;5097281;28;20046;-72
2024/03/20 08:16:28;;;;;;;22.38;12.45;;;;;;;11.01;100.00;101813.41;5083014;28;20052;-71
2024/03/20 08:19:15;;;;;;;21.52;12.52;;;;;;;11.04;100.00;101819.19;5101367;28;20084;-71
2024/03/20 08:22:02;;;;;;;24.10;13.23;;;;;;;11.08;100.00;101817.59;5065937;28;20043;-70
2024/03/20 08:24:49;;;;;;;19.00;12.88;;;;;;;11.12;100.00;101811.69;5075093;28;20043;-71
2024/03/20 08:27:37;;;;;;;22.75;14.02;;;;;;;11.15;100.00;101819.38;5111666;28;20488;-71
2024/03/20 08:30:24;;;;;;;20.63;12.80;;;;;;;11.19;100.00;101817.81;5039936;28;20074;-73
2024/03/20 08:33:12;;;;;;;21.70;13.68;;;;;;;11.21;100.00;101821.13;5058900;28;20044;-72
2024/03/20 08:36:00;;;;;;;22.65;14.23;;;;;;;11.24;100.00;101817.88;5054604;28;20039;-72
2024/03/20 08:38:47;;;;;;;23.40;14.25;;;;;;;11.26;100.00;101819.28;5092523;27;20453;-70
2024/03/20 08:41:34;;;;;;;21.02;13.90;;;;;;;11.29;100.00;101815.22;5097315;28;20035;-71
2024/03/20 08:44:21;;;;;;;20.52;14.98;;;;;;;11.31;100.00;101821.28;5078522;28;20048;-72
2024/03/20 08:47:08;;;;;;;20.30;14.25;;;;;;;11.35;100.00;101818.84;5071449;28;20032;-72
2024/03/20 08:49:55;;;;;;;22.85;14.75;;;;;;;11.37;100.00;101820.25;5066477;28;20048;-72
2024/03/20 08:52:42;;;;;;;24.17;16.08;;;;;;;11.42;100.00;101820.34;5098082;28;20054;-72
2024/03/20 08:55:30;;;;;;;23.73;14.60;;;;;;;11.45;100.00;101828.06;5084946;28;20271;-71
2024/03/20 08:58:17;;;;;;;21.45;14.35;;;;;;;11.49;100.00;101829.19;5085589;28;20096;-72
2024/03/20 09:01:04;;;;;;;24.63;15.52;;;;;;;11.53;100.00;101832.25;5071110;28;20135;-71
2024/03/20 09:03:51;;;;;;;24.35;14.00;;;;;;;11.57;100.00;101829.84;5082129;28;20040;-71
2024/03/20 09:06:38;;;;;;;28.35;18.55;;;;;;;11.61;100.00;101820.06;5085452;28;20039;-72
2024/03/20 09:09:26;;;;;;;37.88;17.48;;;;;;;11.66;100.00;101828.34;5070536;28;20117;-73
2024/03/20 09:12:13;;;;;;;26.05;18.73;;;;;;;11.67;100.00;101819.91;5055621;28;20036;-72
2024/03/20 09:15:00;;;;;;;28.33;20.25;;;;;;;11.70;100.00;101824.03;5067272;28;20043;-72
2024/03/20 09:17:49;;;;;;;26.83;20.92;;;;;;;11.71;100.00;101818.34;5066904;28;20040;-71
2024/03/20 09:20:40;;;;;;;30.20;20.73;;;;;;;11.76;100.00;101825.78;5077971;28;20098;-71
2024/03/20 09:23:27;;;;;;;29.70;21.63;;;;;;;11.79;100.00;101813.53;5084527;28;20043;-72
2024/03/20 09:26:14;;;;;;;29.67;20.55;;;;;;;11.81;100.00;101820.38;5069853;28;20044;-71
2024/03/20 09:29:01;;;;;;;31.02;21.67;;;;;;;11.83;100.00;101812.75;5066283;28;20067;-72
2024/03/20 09:31:48;;;;;;;33.05;24.55;;;;;;;11.88;100.00;101810.13;5062623;28;20075;-73
2024/03/20 09:34:36;;;;;;;35.10;25.58;;;;;;;11.94;100.00;101816.50;5072300;28;20122;-71
2024/03/20 09:37:23;;;;;;;31.65;25.60;;;;;;;11.99;100.00;101813.81;5050973;28;20044;-72
2024/03/20 09:40:10;;;;;;;34.95;26.38;;;;;;;12.04;100.00;101813.88;5065326;28;20084;-71
2024/03/20 09:42:57;;;;;;;31.38;24.80;;;;;;;12.09;100.00;101815.84;5044011;28;20041;-71
2024/03/20 09:45:44;;;;;;;27.85;20.27;;;;;;;12.11;100.00;101814.53;5037707;28;20035;-72
2024/03/20 09:48:32;;;;;;;31.15;21.38;;;;;;;12.15;100.00;101803.94;5078554;28;20126;-72
2024/03/20 09:51:20;;;;;;;29.15;22.02;;;;;;;12.18;100.00;101803.41;5065873;28;20048;-71
2024/03/20 09:54:08;;;;;;;27.25;21.90;;;;;;;12.21;100.00;101805.63;5063182;28;20507;-71
2024/03/20 09:56:55;;;;;;;33.70;24.10;;;;;;;12.25;100.00;101806.78;5045088;28;20036;-72
2024/03/20 09:59:49;;;;;;;28.60;21.90;;;;;;;12.32;100.00;101803.84;5052918;28;20048;-72
2024/03/20 10:02:36;;;;;;;33.70;23.38;;;;;;;12.34;100.00;101802.53;5079054;28;20048;-72
2024/03/20 10:05:23;;;;;;;29.45;21.45;;;;;;;12.40;100.00;101806.13;5098278;28;20063;-72
2024/03/20 10:08:12;;;;;;;28.13;21.15;;;;;;;12.44;100.00;101803.72;5078917;28;20063;-72
2024/03/20 10:10:59;;;;;;;28.30;20.77;;;;;;;12.47;100.00;101804.03;5092197;28;20377;-72
2024/03/20 10:13:46;;;;;;;29.35;20.77;;;;;;;12.50;100.00;101795.28;5064899;28;20044;-72
2024/03/20 10:16:34;;;;;;;27.27;18.55;;;;;;;12.55;100.00;101797.25;5092935;28;20385;-72
2024/03/20 10:19:25;;;;;;;29.73;17.88;;;;;;;12.60;100.00;101794.56;5102362;28;20104;-71
2024/03/20 10:22:12;;;;;;;23.10;14.50;;;;;;;12.64;100.00;101792.97;5111717;28;20062;-72
2024/03/20 10:24:59;;;;;;;25.42;15.25;;;;;;;12.66;100.00;101792.75;5070158;28;20039;-70
2024/03/20 10:27:49;;;;;;;25.45;17.23;;;;;;;12.67;100.00;101773.31;5079281;28;20048;-71
2024/03/20 10:30:36;;;;;;;31.27;17.67;;;;;;;12.70;100.00;101782.91;5081144;28;20055;-71
2024/03/20 10:33:24;;;;;;;23.58;16.50;;;;;;;12.74;100.00;101776.66;5093213;28;20092;-72
2024/03/20 10:36:15;;;;;;;26.23;17.15;;;;;;;12.79;100.00;101779.47;5097153;28;20067;-71
2024/03/20 10:39:04;;;;;;;27.45;16.35;;;;;;;12.83;100.00;101784.41;5102584;28;20040;-72
2024/03/20 10:41:52;;;;;;;22.33;16.95;;;;;;;12.88;100.00;101779.00;5084057;28;20042;-74
2024/03/20 10:44:40;;;;;;;25.95;19.33;;;;;;;12.89;100.00;101777.91;5071407;28;20143;-73
2024/03/20 10:47:27;;;;;;;22.42;18.42;;;;;;;12.90;100.00;101774.09;5090296;28;20093;-74
2024/03/20 10:50:15;;;;;;;25.67;19.38;;;;;;;12.95;100.00;101776.88;5081039;28;20120;-74
2024/03/20 10:53:02;;;;;;;27.15;19.10;;;;;;;13.00;100.00;101771.44;5063175;28;20057;-74
2024/03/20 10:55:53;;;;;;;22.88;19.08;;;;;;;13.06;100.00;101767.66;5077405;28;20111;-73
2024/03/20 10:58:41;;;;;;;22.60;15.23;;;;;;;13.19;100.00;101769.94;5094523;28;20047;-73
2024/03/20 11:01:28;;;;;;;23.83;16.45;;;;;;;13.33;100.00;101772.28;5078286;28;20051;-72
2024/03/20 11:04:33;;;;;;;24.88;18.48;;;;;;;13.41;100.00;101774.50;5097392;28;20105;-72
2024/03/20 11:07:29;;;;;;;25.77;16.45;;;;;;;13.47;100.00;101776.19;5083931;28;20051;-73
2024/03/20 11:10:20;;;;;;;20.13;14.40;;;;;;;13.51;100.00;101771.81;5093181;28;20118;-72
2024/03/20 11:13:19;;;;;;;21.42;15.40;;;;;;;13.52;100.00;101773.50;5060625;28;20699;-72
2024/03/20 11:16:07;;;;;;;22.55;14.75;;;;;;;13.54;100.00;101776.78;5096911;28;20062;-70
2024/03/20 11:18:54;;;;;;;22.77;16.38;;;;;;;13.56;100.00;101774.59;5081894;28;20038;-70
2024/03/20 11:21:41;;;;;;;20.48;15.85;;;;;;;13.59;100.00;101774.09;5050439;28;20097;-72
2024/03/20 11:24:28;;;;;;;19.67;14.23;;;;;;;13.63;100.00;101769.72;5049839;28;20036;-70
2024/03/20 11:27:16;;;;;;;21.67;13.98;;;;;;;13.70;100.00;101768.66;5063873;28;20404;-71
2024/03/20 11:30:05;;;;;;;15.38;10.45;;;;;;;13.73;100.00;101768.94;5075735;28;20372;-72
2024/03/20 11:32:55;;;;;;;21.20;13.10;;;;;;;13.78;100.00;101779.09;5078496;28;20387;-71
2024/03/20 11:35:45;;;;;;;16.75;12.73;;;;;;;13.84;100.00;101778.03;5075612;28;20502;-72
2024/03/20 11:38:33;;;;;;;19.70;12.40;;;;;;;13.83;100.00;101769.00;5080218;28;20077;-71
2024/03/20 11:41:20;;;;;;;16.23;11.20;;;;;;;13.85;100.00;101768.72;5080937;28;20043;-71
2024/03/20 11:44:10;;;;;;;17.65;13.00;;;;;;;13.90;100.00;101776.97;5064411;28;20051;-71
2024/03/20 11:46:58;;;;;;;20.40;12.40;;;;;;;13.94;100.00;101777.28;5087505;28;20111;-71
2024/03/20 11:49:49;;;;;;;18.35;12.90;;;;;;;13.97;100.00;101776.72;5076999;28;20075;-71
2024/03/20 11:52:36;;;;;;;18.17;12.43;;;;;;;13.97;100.00;101769.31;5103465;28;20066;-72
2024/03/20 11:55:23;;;;;;;25.05;14.48;;;;;;;13.98;100.00;101775.66;5097067;28;20042;-72
2024/03/20 11:58:12;;;;;;;16.63;12.23;;;;;;;14.02;100.00;101774.84;5076522;28;20052;-71
2024/03/20 12:01:05;;;;;;;15.55;10.93;;;;;;;14.05;100.00;101773.50;5063189;28;20055;-71
2024/03/20 12:03:53;;;;;;;18.70;12.02;;;;;;;14.10;100.00;101776.25;5075647;28;20037;-70
2024/03/20 12:06:40;;;;;;;18.50;11.68;;;;;;;14.13;100.00;101772.16;5078565;28;20449;-71
2024/03/20 12:09:28;;;;;;;25.90;13.90;;;;;;;14.20;100.00;101772.72;5094967;28;20415;-71
2024/03/20 12:12:16;;;;;;;16.15;11.82;;;;;;;14.23;100.00;101766.69;5081494;28;20044;-72
2024/03/20 12:15:05;;;;;;;16.45;11.98;;;;;;;14.24;100.00;101768.34;5063619;28;20439;-72
2024/03/20 12:17:55;;;;;;;20.50;15.70;;;;;;;14.27;100.00;101767.81;5079225;28;20040;-71
2024/03/20 12:20:42;;;;;;;22.23;16.17;;;;;;;14.31;100.00;101763.44;5089141;28;20083;-71
2024/03/20 12:23:31;;;;;;;24.25;15.45;;;;;;;14.32;100.00;101761.53;5096777;28;20078;-71
2024/03/20 12:26:22;;;;;;;22.80;17.08;;;;;;;14.32;100.00;101754.09;5053902;28;20071;-71
2024/03/20 12:29:11;;;;;;;21.58;15.40;;;;;;;14.34;100.00;101756.59;5054491;28;20082;-70
2024/03/20 12:31:58;;;;;;;21.33;15.90;;;;;;;14.38;100.00;101747.56;5100420;28;20078;-70
2024/03/20 12:34:45;;;;;;;20.27;16.25;;;;;;;14.42;100.00;101742.34;5071118;28;20044;-70
2024/03/20 12:37:33;;;;;;;27.33;17.23;;;;;;;14.44;100.00;101740.16;5082279;28;20055;-71
2024/03/20 12:40:20;;;;;;;21.95;16.00;;;;;;;14.46;100.00;101743.44;5085292;28;20067;-71